createdAt,value
2022-09-10T00:02:02.968Z,6.70
2022-09-10T00:04:30.581Z,6.75
2022-09-10T00:06:57.615Z,7.05
2022-09-10T00:09:24.790Z,8.07
2022-09-10T00:11:51.931Z,7.45
2022-09-10T00:14:22.727Z,7.97
2022-09-10T00:16:50.316Z,7.20
2022-09-10T00:19:18.481Z,7.95
2022-09-10T00:21:45.586Z,7.85
2022-09-10T00:24:12.929Z,6.45
2022-09-10T00:26:40.465Z,7.18
2022-09-10T00:29:12.715Z,6.13
2022-09-10T00:31:40.091Z,7.05
2022-09-10T00:34:07.455Z,6.75
2022-09-10T00:36:39.796Z,7.13
2022-09-10T00:39:18.532Z,5.13
2022-09-10T00:41:48.070Z,7.05
2022-09-10T00:44:37.482Z,6.15
2022-09-10T00:47:12.885Z,6.80
2022-09-10T00:49:44.300Z,6.57
2022-09-10T00:52:12.450Z,7.55
2022-09-10T00:54:42.559Z,6.55
2022-09-10T00:57:17.469Z,6.13
2022-09-10T00:59:50.380Z,6.50
2022-09-10T01:02:17.418Z,6.53
2022-09-10T01:04:45.744Z,6.15
2022-09-10T01:07:14.614Z,6.57
2022-09-10T01:09:43.193Z,7.28
2022-09-10T01:12:36.558Z,7.47
2022-09-10T01:15:29.148Z,7.90
2022-09-10T01:18:03.590Z,7.78
2022-09-10T01:20:53.816Z,7.07
2022-09-10T01:23:58.267Z,7.78
2022-09-10T01:26:34.568Z,7.03
2022-09-10T01:29:12.817Z,7.28
2022-09-10T01:31:52.110Z,8.23
2022-09-10T01:34:46.356Z,8.73
2022-09-10T01:37:29.180Z,8.82
2022-09-10T01:39:59.288Z,8.48
2022-09-10T01:42:28.532Z,7.25
2022-09-10T01:44:58.035Z,7.72
2022-09-10T01:48:09.741Z,8.50
2022-09-10T01:51:26.093Z,8.82
2022-09-10T01:54:01.937Z,7.43
2022-09-10T01:56:43.885Z,9.55
2022-09-10T01:59:23.525Z,7.72
2022-09-10T02:01:59.890Z,9.70
2022-09-10T02:04:30.006Z,8.90
2022-09-10T02:06:57.615Z,9.98
2022-09-10T02:09:24.922Z,8.63
2022-09-10T02:11:54.517Z,9.98
2022-09-10T02:14:34.235Z,9.75
2022-09-10T02:17:12.141Z,10.88
2022-09-10T02:19:39.208Z,10.68
2022-09-10T02:22:06.294Z,9.60
2022-09-10T02:24:33.342Z,8.95
2022-09-10T02:27:00.824Z,9.65
2022-09-10T02:29:28.909Z,9.00
2022-09-10T02:31:55.931Z,9.80
2022-09-10T02:34:23.254Z,9.70
2022-09-10T02:36:50.356Z,8.65
2022-09-10T02:39:17.381Z,7.90
2022-09-10T02:41:45.640Z,7.38
2022-09-10T02:44:12.828Z,8.35
2022-09-10T02:46:40.252Z,8.32
2022-09-10T02:49:09.267Z,8.45
2022-09-10T02:51:38.886Z,8.13
2022-09-10T02:54:07.088Z,6.90
2022-09-10T02:56:34.731Z,8.00
2022-09-10T02:59:01.711Z,8.35
2022-09-10T03:01:29.651Z,8.68
2022-09-10T03:04:01.225Z,8.73
2022-09-10T03:06:30.173Z,8.10
2022-09-10T03:08:58.530Z,6.75
2022-09-10T03:11:27.714Z,6.65
2022-09-10T03:13:56.241Z,8.70
2022-09-10T03:16:24.496Z,7.82
2022-09-10T03:18:52.480Z,8.10
2022-09-10T03:21:22.466Z,8.32
2022-09-10T03:23:52.909Z,7.75
2022-09-10T03:26:27.706Z,7.85
2022-09-10T03:28:55.070Z,7.43
2022-09-10T03:31:25.032Z,7.47
2022-09-10T03:33:52.082Z,8.25
2022-09-10T03:36:22.731Z,8.57
2022-09-10T03:38:50.351Z,8.43
2022-09-10T03:41:17.886Z,8.93
2022-09-10T03:43:45.994Z,8.82
2022-09-10T03:46:13.278Z,9.23
2022-09-10T03:48:45.776Z,9.05
2022-09-10T03:51:13.182Z,8.13
2022-09-10T03:53:41.014Z,8.80
2022-09-10T03:56:11.295Z,7.05
2022-09-10T03:58:39.650Z,8.80
2022-09-10T04:01:08.958Z,8.43
2022-09-10T04:03:38.890Z,7.80
2022-09-10T04:06:10.495Z,9.95
2022-09-10T04:08:38.139Z,7.50
2022-09-10T04:11:08.110Z,8.88
2022-09-10T04:13:35.154Z,8.80
2022-09-10T04:16:03.028Z,9.38
2022-09-10T04:18:34.582Z,8.52
2022-09-10T04:21:03.367Z,9.90
2022-09-10T04:23:31.083Z,8.55
2022-09-10T04:25:58.059Z,9.32
2022-09-10T04:28:28.672Z,7.85
2022-09-10T04:30:56.936Z,8.63
2022-09-10T04:33:25.595Z,9.65
2022-09-10T04:36:00.596Z,9.55
2022-09-10T04:38:32.372Z,10.13
2022-09-10T04:41:03.411Z,9.32
2022-09-10T04:43:30.458Z,8.05
2022-09-10T04:45:59.885Z,8.52
2022-09-10T04:48:27.265Z,8.10
2022-09-10T04:51:15.256Z,8.52
2022-09-10T04:53:45.959Z,10.48
2022-09-10T04:56:13.850Z,9.52
2022-09-10T04:58:41.900Z,9.43
2022-09-10T05:01:09.518Z,9.80
2022-09-10T05:03:37.313Z,9.20
2022-09-10T05:06:09.378Z,8.65
2022-09-10T05:08:36.937Z,8.30
2022-09-10T05:11:05.497Z,9.70
2022-09-10T05:13:33.554Z,8.57
2022-09-10T05:16:01.760Z,7.97
2022-09-10T05:18:31.436Z,9.50
2022-09-10T05:20:58.619Z,8.63
2022-09-10T05:23:27.371Z,8.73
2022-09-10T05:25:59.462Z,9.45
2022-09-10T05:28:27.367Z,8.82
2022-09-10T05:30:55.572Z,9.50
2022-09-10T05:33:24.681Z,8.30
2022-09-10T05:35:51.923Z,9.18
2022-09-10T05:38:20.707Z,8.70
2022-09-10T05:40:48.738Z,9.20
2022-09-10T05:43:15.691Z,7.82
2022-09-10T05:45:44.592Z,7.72
2022-09-10T05:48:11.611Z,7.28
2022-09-10T05:50:41.886Z,6.70
2022-09-10T05:53:12.493Z,5.88
2022-09-10T05:55:39.727Z,6.07
2022-09-10T05:58:07.519Z,6.07
2022-09-10T06:00:37.046Z,6.78
2022-09-10T06:03:05.553Z,5.20
2022-09-10T06:05:41.668Z,4.95
2022-09-10T06:08:10.033Z,4.60
2022-09-10T06:10:43.335Z,3.60
2022-09-10T06:13:11.632Z,4.53
2022-09-10T06:15:42.222Z,4.18
2022-09-10T06:18:09.836Z,4.07
2022-09-10T06:20:37.759Z,4.63
2022-09-10T06:23:06.970Z,5.00
2022-09-10T06:25:34.050Z,4.00
2022-09-10T06:28:02.294Z,4.40
2022-09-10T06:30:29.647Z,3.40
2022-09-10T06:32:57.338Z,3.88
2022-09-10T06:35:25.567Z,4.22
2022-09-10T06:37:54.726Z,4.47
2022-09-10T06:40:22.170Z,4.38
2022-09-10T06:42:49.503Z,3.90
2022-09-10T06:45:19.566Z,3.65
2022-09-10T06:48:37.208Z,3.80
2022-09-10T06:50:53.485Z,4.60
2022-09-10T06:53:24.489Z,3.55
2022-09-10T06:56:20.110Z,3.47
2022-09-10T06:59:01.504Z,4.10
2022-09-10T07:01:43.640Z,3.13
2022-09-10T07:04:11.116Z,2.85
2022-09-10T07:06:42.859Z,2.70
2022-09-10T07:09:15.385Z,3.33
2022-09-10T07:12:22.414Z,2.80
2022-09-10T07:14:50.011Z,2.60
2022-09-10T07:17:23.541Z,3.33
2022-09-10T07:20:01.513Z,2.85
2022-09-10T07:22:42.642Z,2.15
2022-09-10T07:25:17.411Z,3.40
2022-09-10T07:28:01.466Z,1.67
2022-09-10T07:30:37.200Z,1.83
2022-09-10T07:33:08.977Z,1.35
2022-09-10T07:35:46.601Z,1.40
2022-09-10T07:38:19.537Z,1.70
2022-09-10T07:40:52.938Z,1.52
2022-09-10T07:43:53.285Z,1.13
2022-09-10T07:46:41.143Z,1.10
2022-09-10T07:49:11.657Z,2.08
2022-09-10T07:51:40.729Z,1.13
2022-09-10T07:54:08.135Z,1.30
2022-09-10T07:56:44.372Z,1.10
2022-09-10T07:59:14.209Z,1.30
2022-09-10T08:01:53.283Z,1.20
2022-09-10T08:04:21.269Z,1.30
2022-09-10T08:06:48.748Z,1.60
2022-09-10T08:09:21.903Z,2.35
2022-09-10T08:11:55.200Z,1.20
2022-09-10T08:14:24.393Z,2.10
2022-09-10T08:16:57.355Z,1.20
2022-09-10T08:19:26.257Z,1.25
2022-09-10T08:21:56.077Z,1.60
2022-09-10T08:24:29.058Z,1.25
2022-09-10T08:26:56.616Z,1.20
2022-09-10T08:29:32.593Z,1.15
2022-09-10T08:32:19.496Z,1.13
2022-09-10T08:34:46.642Z,1.42
2022-09-10T08:37:15.848Z,1.40
2022-09-10T08:39:43.954Z,1.35
2022-09-10T08:42:29.180Z,1.35
2022-09-10T08:45:10.164Z,1.88
2022-09-10T08:47:58.783Z,1.48
2022-09-10T08:50:51.731Z,1.95
2022-09-10T08:53:31.478Z,1.50
2022-09-10T08:56:11.559Z,1.17
2022-09-10T08:58:47.896Z,1.20
2022-09-10T09:01:31.734Z,1.55
2022-09-10T09:04:08.214Z,1.90
2022-09-10T09:06:48.734Z,1.55
2022-09-10T09:09:16.810Z,1.45
2022-09-10T09:12:27.400Z,1.75
2022-09-10T09:15:20.595Z,2.33
2022-09-10T09:18:17.509Z,1.20
2022-09-10T09:20:55.247Z,1.83
2022-09-10T09:23:25.233Z,1.20
2022-09-10T09:26:05.427Z,1.70
2022-09-10T09:28:39.580Z,1.50
2022-09-10T09:31:43.075Z,1.88
2022-09-10T09:34:28.506Z,1.25
2022-09-10T09:36:58.755Z,1.75
2022-09-10T09:39:45.994Z,1.17
2022-09-10T09:42:47.167Z,2.05
2022-09-10T09:45:49.595Z,1.15
2022-09-10T09:48:22.740Z,1.35
2022-09-10T09:50:57.336Z,1.80
2022-09-10T09:53:34.266Z,1.38
2022-09-10T09:56:23.148Z,2.03
2022-09-10T09:58:52.574Z,1.50
2022-09-10T10:01:23.095Z,1.95
2022-09-10T10:03:59.631Z,1.90
2022-09-10T10:06:47.179Z,1.98
2022-09-10T10:09:46.032Z,1.50
2022-09-10T10:16:37.867Z,2.45
2022-09-10T10:19:30.010Z,2.03
2022-09-10T10:21:59.969Z,1.63
2022-09-10T10:24:35.404Z,1.85
2022-09-10T10:27:02.689Z,1.52
2022-09-10T10:29:30.482Z,1.45
2022-09-10T10:32:05.688Z,1.38
2022-09-10T10:35:08.216Z,1.83
2022-09-10T10:37:41.133Z,1.98
2022-09-10T10:40:37.555Z,2.85
2022-09-10T10:43:23.418Z,1.55
2022-09-10T10:46:13.121Z,1.73
2022-09-10T10:48:45.282Z,1.98
2022-09-10T10:51:32.203Z,1.65
2022-09-10T10:54:34.892Z,2.45
2022-09-10T10:57:22.003Z,2.10
2022-09-10T11:00:17.103Z,1.80
2022-09-10T11:03:25.840Z,2.00
2022-09-10T11:06:08.325Z,2.42
2022-09-10T11:08:50.965Z,1.95
2022-09-10T11:11:23.435Z,3.05
2022-09-10T11:14:38.309Z,2.42
2022-09-10T11:17:14.297Z,2.53
2022-09-10T11:20:27.145Z,1.88
2022-09-10T11:23:07.583Z,1.88
2022-09-10T11:25:46.820Z,2.08
2022-09-10T11:28:19.795Z,2.65
2022-09-10T11:30:53.564Z,1.70
2022-09-10T11:33:27.747Z,2.05
2022-09-10T11:36:06.314Z,3.33
2022-09-10T11:38:48.409Z,1.90
2022-09-10T11:41:26.828Z,2.45
2022-09-10T11:44:13.096Z,2.25
2022-09-10T11:46:50.484Z,2.40
2022-09-10T11:49:28.377Z,2.25
2022-09-10T11:51:57.346Z,2.95
2022-09-10T11:54:34.600Z,2.20
2022-09-10T11:57:18.730Z,2.35
2022-09-10T12:00:04.461Z,2.50
2022-09-10T12:03:13.949Z,2.40
2022-09-10T12:05:56.123Z,2.22
2022-09-10T12:08:38.519Z,2.58
2022-09-10T12:11:30.104Z,2.50
2022-09-10T12:13:59.154Z,2.15
2022-09-10T12:16:46.862Z,2.63
2022-09-10T12:19:37.951Z,2.55
2022-09-10T12:22:09.396Z,1.83
2022-09-10T12:24:39.109Z,2.20
2022-09-10T12:27:07.387Z,2.83
2022-09-10T12:29:38.348Z,2.70
2022-09-10T12:32:08.410Z,2.15
2022-09-10T12:34:37.029Z,2.40
2022-09-10T12:37:20.015Z,2.15
2022-09-10T12:39:47.349Z,2.42
2022-09-10T12:42:27.278Z,2.85
2022-09-10T12:44:56.356Z,3.25
2022-09-10T12:47:30.058Z,2.28
2022-09-10T12:50:05.168Z,2.40
2022-09-10T12:52:35.630Z,2.58
2022-09-10T12:55:21.758Z,2.33
2022-09-10T12:57:59.901Z,3.47
2022-09-10T13:00:38.389Z,2.63
2022-09-10T13:03:05.979Z,2.80
2022-09-10T13:05:52.967Z,2.45
2022-09-10T13:08:38.291Z,2.58
2022-09-10T13:11:35.850Z,2.58
2022-09-10T13:14:06.462Z,2.65
2022-09-10T13:16:33.412Z,2.13
2022-09-10T13:19:32.582Z,2.25
2022-09-10T13:21:59.833Z,2.70
2022-09-10T13:24:36.348Z,2.30
2022-09-10T13:27:36.151Z,3.03
2022-09-10T13:30:12.348Z,2.53
2022-09-10T13:32:44.467Z,2.50
2022-09-10T13:35:17.530Z,1.95
2022-09-10T13:37:55.396Z,1.80
2022-09-10T13:40:34.813Z,2.47
2022-09-10T13:43:31.439Z,2.45
2022-09-10T13:46:20.264Z,1.60
2022-09-10T13:48:56.767Z,1.77
2022-09-10T13:51:46.345Z,2.05
2022-09-10T13:54:34.735Z,2.30
2022-09-10T13:57:35.804Z,2.25
2022-09-10T14:00:03.790Z,1.80
2022-09-10T14:02:48.223Z,2.13
2022-09-10T14:05:31.858Z,2.40
2022-09-10T14:08:15.522Z,1.73
2022-09-10T14:10:53.439Z,2.80
2022-09-10T14:13:28.482Z,2.58
2022-09-10T14:16:01.428Z,1.50
2022-09-10T14:18:38.294Z,1.70
2022-09-10T14:21:06.234Z,2.15
2022-09-10T14:23:34.355Z,1.73
2022-09-10T14:26:15.843Z,1.98
2022-09-10T14:29:30.808Z,1.98
2022-09-10T14:31:58.125Z,2.15
2022-09-10T14:34:26.009Z,1.63
2022-09-10T14:37:03.417Z,2.10
2022-09-10T14:39:31.171Z,1.48
2022-09-10T14:42:40.026Z,1.77
2022-09-10T14:45:40.758Z,1.90
2022-09-10T14:48:29.472Z,1.77
2022-09-10T14:51:16.011Z,1.92
2022-09-10T14:53:45.256Z,1.90
2022-09-10T14:56:37.849Z,2.28
2022-09-10T14:59:21.433Z,1.98
2022-09-10T15:01:49.333Z,1.77
2022-09-10T15:04:21.801Z,2.55
2022-09-10T15:07:11.076Z,2.15
2022-09-10T15:09:38.334Z,2.03
2022-09-10T15:12:15.651Z,2.05
2022-09-10T15:14:42.797Z,2.75
2022-09-10T15:17:14.199Z,2.20
2022-09-10T15:19:42.857Z,2.53
2022-09-10T15:22:30.631Z,2.35
2022-09-10T15:25:10.507Z,2.22
2022-09-10T15:27:41.938Z,2.60
2022-09-10T15:30:09.473Z,2.35
2022-09-10T15:32:36.578Z,1.73
2022-09-10T15:35:05.636Z,1.80
2022-09-10T15:37:33.008Z,2.35
2022-09-10T15:40:00.269Z,2.25
2022-09-10T15:42:27.245Z,2.35
2022-09-10T15:44:54.238Z,2.30
2022-09-10T15:47:21.366Z,1.80
2022-09-10T15:49:52.631Z,2.30
2022-09-10T15:52:20.037Z,2.22
2022-09-10T15:54:47.087Z,2.10
2022-09-10T15:57:13.998Z,2.15
2022-09-10T15:59:40.960Z,2.17
2022-09-10T16:02:13.246Z,2.10
2022-09-10T16:04:42.947Z,2.17
2022-09-10T16:07:11.121Z,2.15
2022-09-10T16:09:38.264Z,2.38
2022-09-10T16:12:05.578Z,2.53
2022-09-10T16:14:32.783Z,2.33
2022-09-10T16:17:00.972Z,2.63
2022-09-10T16:19:28.163Z,3.38
2022-09-10T16:21:58.493Z,3.42
2022-09-10T16:24:25.702Z,3.22
2022-09-10T16:26:53.309Z,3.33
2022-09-10T16:29:20.459Z,2.60
2022-09-10T16:31:48.281Z,2.53
2022-09-10T16:34:20.422Z,3.58
2022-09-10T16:36:51.674Z,2.50
2022-09-10T16:39:20.151Z,4.18
2022-09-10T16:41:49.131Z,2.92
2022-09-10T16:44:17.871Z,3.42
2022-09-10T16:46:49.957Z,2.80
2022-09-10T16:49:19.809Z,2.60
2022-09-10T16:51:51.563Z,3.45
2022-09-10T16:54:21.026Z,2.63
2022-09-10T16:56:50.482Z,3.60
2022-09-10T16:59:23.115Z,3.35
2022-09-10T17:01:52.245Z,2.28
2022-09-10T17:04:32.546Z,2.85
2022-09-10T17:07:08.811Z,3.85
2022-09-10T17:09:36.198Z,3.22
2022-09-10T17:12:08.796Z,3.03
2022-09-10T17:14:36.151Z,3.65
2022-09-10T17:17:03.833Z,2.95
2022-09-10T17:19:34.136Z,3.72
2022-09-10T17:22:05.680Z,3.55
2022-09-10T17:24:32.903Z,3.85
2022-09-10T17:27:00.860Z,3.70
2022-09-10T17:29:28.114Z,4.00
2022-09-10T17:31:58.730Z,3.97
2022-09-10T17:34:27.332Z,4.18
2022-09-10T17:36:54.583Z,3.83
2022-09-10T17:39:22.056Z,3.40
2022-09-10T17:41:49.235Z,3.38
2022-09-10T17:44:16.797Z,4.25
2022-09-10T17:46:45.168Z,4.13
2022-09-10T17:49:16.371Z,4.53
2022-09-10T17:51:44.005Z,3.35
2022-09-10T17:54:12.021Z,3.97
2022-09-10T17:56:43.570Z,3.83
2022-09-10T17:59:25.448Z,3.67
2022-09-10T18:01:53.050Z,3.95
2022-09-10T18:04:23.779Z,3.67
2022-09-10T18:06:52.517Z,4.05
2022-09-10T18:09:23.695Z,3.45
2022-09-10T18:11:51.028Z,3.35
2022-09-10T18:14:19.619Z,4.38
2022-09-10T18:16:50.085Z,3.90
2022-09-10T18:19:18.463Z,4.38
2022-09-10T18:21:49.565Z,4.72
2022-09-10T18:24:24.691Z,3.22
2022-09-10T18:26:54.091Z,3.47
2022-09-10T18:29:22.836Z,4.25
2022-09-10T18:31:57.312Z,4.53
2022-09-10T18:34:28.229Z,3.13
2022-09-10T18:37:00.515Z,4.38
2022-09-10T18:39:30.632Z,4.40
2022-09-10T18:42:04.929Z,3.20
2022-09-10T18:44:37.125Z,4.40
2022-09-10T18:47:17.711Z,4.30
2022-09-10T18:49:53.613Z,3.95
2022-09-10T18:52:21.138Z,4.43
2022-09-10T18:54:48.506Z,4.43
2022-09-10T18:57:15.477Z,4.25
2022-09-10T18:59:45.419Z,3.80
2022-09-10T19:02:15.625Z,3.92
2022-09-10T19:05:07.360Z,4.25
2022-09-10T19:07:30.397Z,5.43
2022-09-10T19:09:57.659Z,3.67
2022-09-10T19:12:24.826Z,4.32
2022-09-10T19:14:51.767Z,3.90
2022-09-10T19:17:18.992Z,5.28
2022-09-10T19:19:47.977Z,4.55
2022-09-10T19:22:16.701Z,4.55
2022-09-10T19:24:54.436Z,4.97
2022-09-10T19:27:22.468Z,5.10
2022-09-10T19:29:50.492Z,4.68
2022-09-10T19:32:22.276Z,4.07
2022-09-10T19:34:50.702Z,4.22
2022-09-10T19:37:20.894Z,5.00
2022-09-10T19:39:48.226Z,5.13
2022-09-10T19:42:22.224Z,5.85
2022-09-10T19:44:49.446Z,5.80
2022-09-10T19:47:16.367Z,14.82
2022-09-10T19:49:44.259Z,7.28
2022-09-10T19:52:11.304Z,7.75
2022-09-10T19:54:38.943Z,7.43
2022-09-10T19:57:06.025Z,6.68
2022-09-10T19:59:35.773Z,6.68
2022-09-10T20:02:02.863Z,5.80
2022-09-10T20:04:35.839Z,7.20
2022-09-10T20:35:17.665Z,5.13
2022-09-10T20:53:42.949Z,5.05
2022-09-10T21:05:57.749Z,5.05
2022-09-10T22:57:21.430Z,4.28
2022-09-10T23:00:23.696Z,6.15
2022-09-10T23:04:03.402Z,4.63
2022-09-10T23:15:15.226Z,4.50
2022-09-10T23:24:17.797Z,4.00
2022-09-10T23:45:35.413Z,4.75
